createdAt,value
2022-10-15T00:01:26.559Z,8.41
2022-10-15T00:02:28.955Z,8.48
2022-10-15T00:03:31.115Z,8.54
2022-10-15T00:04:34.467Z,8.54
2022-10-15T00:05:40.398Z,8.54
2022-10-15T00:06:42.665Z,8.59
2022-10-15T00:07:44.796Z,8.48
2022-10-15T00:08:48.418Z,8.49
2022-10-15T00:09:53.387Z,8.59
2022-10-15T00:10:55.742Z,8.63
2022-10-15T00:11:58.410Z,8.66
2022-10-15T00:13:00.575Z,8.66
2022-10-15T00:14:03.181Z,8.65
2022-10-15T00:15:05.802Z,8.69
2022-10-15T00:16:11.169Z,8.71
2022-10-15T00:17:13.183Z,8.73
2022-10-15T00:18:16.164Z,8.70
2022-10-15T00:19:18.247Z,8.51
2022-10-15T00:20:23.812Z,8.48
2022-10-15T00:21:28.924Z,8.40
2022-10-15T00:22:30.972Z,8.32
2022-10-15T00:23:34.003Z,8.27
2022-10-15T00:24:37.266Z,8.30
2022-10-15T00:25:42.656Z,8.43
2022-10-15T00:26:44.771Z,8.49
2022-10-15T00:27:47.446Z,8.46
2022-10-15T00:28:52.399Z,8.54
2022-10-15T00:30:01.328Z,8.52
2022-10-15T00:31:07.722Z,8.40
2022-10-15T00:32:15.613Z,8.38
2022-10-15T00:33:20.326Z,8.46
2022-10-15T00:34:22.482Z,8.49
2022-10-15T00:35:24.510Z,8.55
2022-10-15T00:36:33.140Z,8.57
2022-10-15T00:37:35.323Z,8.52
2022-10-15T00:38:41.281Z,8.59
2022-10-15T00:39:45.863Z,8.58
2022-10-15T00:40:48.493Z,8.61
2022-10-15T00:41:50.513Z,8.60
2022-10-15T00:42:54.343Z,8.60
2022-10-15T00:44:29.679Z,8.53
2022-10-15T00:45:32.083Z,8.59
2022-10-15T00:46:45.671Z,8.61
2022-10-15T00:47:49.310Z,8.57
2022-10-15T00:48:58.794Z,8.64
2022-10-15T00:50:16.624Z,8.59
2022-10-15T00:51:23.511Z,8.42
2022-10-15T00:52:58.203Z,8.40
2022-10-15T00:54:00.711Z,8.45
2022-10-15T00:55:11.441Z,8.39
2022-10-15T00:56:16.250Z,8.48
2022-10-15T00:57:18.816Z,8.40
2022-10-15T00:58:29.811Z,8.32
2022-10-15T00:59:33.448Z,8.41
2022-10-15T01:00:35.834Z,8.47
2022-10-15T01:01:38.015Z,8.56
2022-10-15T01:02:40.213Z,8.55
2022-10-15T01:03:44.016Z,8.56
2022-10-15T01:04:47.033Z,8.59
2022-10-15T01:05:53.237Z,8.65
2022-10-15T01:06:56.525Z,8.65
2022-10-15T01:08:01.123Z,8.65
2022-10-15T01:09:04.179Z,8.67
2022-10-15T01:10:12.672Z,8.65
2022-10-15T01:11:26.963Z,8.59
2022-10-15T01:12:47.747Z,8.68
2022-10-15T01:14:23.050Z,8.69
2022-10-15T01:15:39.673Z,8.59
2022-10-15T01:16:50.586Z,8.58
2022-10-15T01:17:55.488Z,8.58
2022-10-15T01:19:07.638Z,8.54
2022-10-15T01:20:10.139Z,8.61
2022-10-15T01:21:27.079Z,8.52
2022-10-15T01:22:52.202Z,8.50
2022-10-15T01:24:20.092Z,8.47
2022-10-15T01:25:44.815Z,8.44
2022-10-15T01:27:15.069Z,8.48
2022-10-15T01:28:19.010Z,8.44
2022-10-15T01:30:13.016Z,8.42
2022-10-15T01:31:15.392Z,8.52
2022-10-15T01:32:30.692Z,8.57
2022-10-15T01:33:37.303Z,8.66
2022-10-15T01:35:01.686Z,8.74
2022-10-15T01:36:34.181Z,8.65
2022-10-15T01:37:46.940Z,8.57
2022-10-15T01:38:58.519Z,8.48
2022-10-15T01:40:28.017Z,8.51
2022-10-15T01:41:49.468Z,8.49
2022-10-15T01:42:58.458Z,8.58
2022-10-15T01:44:32.359Z,8.59
2022-10-15T01:46:04.311Z,8.57
2022-10-15T01:47:48.443Z,8.51
2022-10-15T01:48:56.890Z,8.47
2022-10-15T01:50:03.250Z,8.48
2022-10-15T01:51:09.803Z,8.53
2022-10-15T01:52:22.493Z,8.60
2022-10-15T01:53:27.109Z,8.64
2022-10-15T01:54:32.592Z,8.68
2022-10-15T01:55:37.204Z,8.68
2022-10-15T01:56:41.200Z,8.71
2022-10-15T01:57:45.452Z,8.74
2022-10-15T01:58:57.170Z,8.69
2022-10-15T02:00:01.824Z,8.66
2022-10-15T02:01:07.091Z,8.70
2022-10-15T02:02:11.728Z,8.68
2022-10-15T02:03:15.410Z,8.70
2022-10-15T02:04:25.497Z,8.60
2022-10-15T02:05:35.510Z,8.64
2022-10-15T02:06:44.807Z,8.67
2022-10-15T02:08:10.908Z,8.75
2022-10-15T02:09:28.763Z,8.77
2022-10-15T02:10:57.165Z,8.80
2022-10-15T02:12:14.987Z,8.80
2022-10-15T02:13:44.914Z,8.83
2022-10-15T02:15:08.977Z,8.89
2022-10-15T02:16:27.609Z,8.73
2022-10-15T02:17:39.510Z,8.68
2022-10-15T02:19:18.431Z,8.69
2022-10-15T02:20:25.102Z,8.80
2022-10-15T02:21:54.579Z,8.79
2022-10-15T02:23:14.076Z,8.87
2022-10-15T02:24:25.762Z,8.89
2022-10-15T02:25:29.096Z,8.83
2022-10-15T02:26:37.065Z,8.76
2022-10-15T02:27:40.452Z,8.77
2022-10-15T02:28:48.633Z,8.80
2022-10-15T02:29:53.679Z,8.84
2022-10-15T02:30:59.530Z,8.87
2022-10-15T02:32:05.807Z,8.94
2022-10-15T02:33:08.996Z,8.91
2022-10-15T02:34:20.242Z,8.96
2022-10-15T02:35:36.334Z,8.77
2022-10-15T02:36:43.271Z,8.86
2022-10-15T02:37:49.868Z,8.81
2022-10-15T02:38:58.074Z,8.76
2022-10-15T02:40:00.125Z,8.77
2022-10-15T02:41:05.289Z,8.84
2022-10-15T02:42:07.379Z,8.90
2022-10-15T02:43:11.452Z,8.89
2022-10-15T02:44:14.780Z,8.96
2022-10-15T02:45:18.416Z,8.97
2022-10-15T02:46:21.174Z,9.02
2022-10-15T02:47:23.231Z,8.95
2022-10-15T02:48:25.617Z,8.87
2022-10-15T02:49:30.808Z,8.92
2022-10-15T02:50:32.927Z,8.95
2022-10-15T02:51:35.979Z,8.99
2022-10-15T02:52:39.770Z,9.04
2022-10-15T02:53:41.770Z,9.05
2022-10-15T02:54:48.059Z,9.10
2022-10-15T02:55:51.851Z,9.05
2022-10-15T02:56:53.891Z,9.09
2022-10-15T02:57:57.637Z,9.11
2022-10-15T02:59:00.200Z,9.08
2022-10-15T03:00:02.543Z,9.11
2022-10-15T03:01:05.773Z,9.01
2022-10-15T03:02:14.142Z,9.00
2022-10-15T03:03:19.196Z,8.96
2022-10-15T03:04:22.311Z,9.05
2022-10-15T03:06:34.105Z,9.10
2022-10-15T03:07:40.404Z,9.13
2022-10-15T03:08:50.444Z,9.01
2022-10-15T03:09:54.811Z,9.04
2022-10-15T03:11:01.731Z,9.07
2022-10-15T03:12:05.841Z,9.00
2022-10-15T03:13:08.585Z,9.05
2022-10-15T03:14:19.947Z,9.02
2022-10-15T03:15:24.671Z,9.00
2022-10-15T03:16:26.948Z,9.06
2022-10-15T03:17:33.214Z,8.99
2022-10-15T03:18:40.503Z,9.06
2022-10-15T03:19:46.664Z,9.10
2022-10-15T03:20:57.025Z,9.12
2022-10-15T03:21:59.601Z,9.07
2022-10-15T03:23:11.007Z,9.09
2022-10-15T03:24:14.602Z,9.11
2022-10-15T03:25:18.956Z,9.11
2022-10-15T03:26:23.107Z,9.08
2022-10-15T03:27:26.801Z,9.10
2022-10-15T03:28:29.598Z,9.09
2022-10-15T03:29:33.061Z,9.00
2022-10-15T03:30:42.777Z,9.02
2022-10-15T03:31:46.366Z,9.08
2022-10-15T03:32:48.684Z,9.07
2022-10-15T03:33:51.597Z,9.07
2022-10-15T03:34:57.785Z,9.14
2022-10-15T03:36:00.132Z,9.08
2022-10-15T03:37:02.526Z,9.16
2022-10-15T03:38:06.680Z,9.16
2022-10-15T03:39:09.339Z,9.13
2022-10-15T03:40:14.891Z,9.15
2022-10-15T03:41:18.707Z,9.08
2022-10-15T03:42:22.568Z,9.14
2022-10-15T03:43:26.017Z,9.14
2022-10-15T03:44:31.394Z,9.13
2022-10-15T03:45:42.850Z,9.16
2022-10-15T03:46:56.948Z,9.22
2022-10-15T03:48:04.268Z,9.23
2022-10-15T03:49:10.227Z,9.25
2022-10-15T03:50:15.266Z,9.25
2022-10-15T03:51:22.751Z,9.16
2022-10-15T03:52:40.731Z,9.21
2022-10-15T03:53:43.844Z,9.20
2022-10-15T03:54:49.653Z,9.25
2022-10-15T03:55:54.872Z,9.31
2022-10-15T03:56:57.534Z,9.34
2022-10-15T03:58:09.312Z,9.33
2022-10-15T03:59:17.238Z,9.33
2022-10-15T04:00:30.635Z,9.29
2022-10-15T04:01:36.553Z,9.29
2022-10-15T04:02:42.074Z,9.26
2022-10-15T04:03:55.167Z,9.17
2022-10-15T04:05:00.424Z,8.99
2022-10-15T04:06:03.512Z,9.04
2022-10-15T04:07:08.193Z,8.93
2022-10-15T04:08:10.415Z,9.02
2022-10-15T04:09:16.144Z,8.95
2022-10-15T04:10:18.615Z,8.94
2022-10-15T04:11:23.885Z,8.97
2022-10-15T04:12:35.957Z,8.91
2022-10-15T04:13:40.431Z,9.02
2022-10-15T04:14:43.038Z,9.05
2022-10-15T04:15:45.369Z,8.97
2022-10-15T04:16:48.467Z,8.97
2022-10-15T04:17:55.824Z,9.11
2022-10-15T04:18:59.179Z,9.12
2022-10-15T04:20:01.644Z,9.13
2022-10-15T04:21:04.362Z,9.14
2022-10-15T04:22:13.412Z,9.18
2022-10-15T04:23:22.376Z,9.23
2022-10-15T04:25:03.368Z,9.20
2022-10-15T04:26:07.488Z,9.11
2022-10-15T04:27:09.598Z,9.13
2022-10-15T04:28:12.182Z,9.12
2022-10-15T04:29:15.973Z,9.12
2022-10-15T04:30:18.257Z,9.20
2022-10-15T04:31:42.646Z,9.23
2022-10-15T04:32:45.508Z,9.25
2022-10-15T04:33:49.414Z,9.18
2022-10-15T04:34:52.202Z,9.21
2022-10-15T04:36:06.267Z,9.25
2022-10-15T04:37:23.379Z,9.29
2022-10-15T04:38:25.750Z,9.33
2022-10-15T04:39:36.474Z,9.31
2022-10-15T04:40:41.301Z,9.36
2022-10-15T04:41:44.499Z,9.40
2022-10-15T04:42:57.499Z,9.32
2022-10-15T04:44:01.303Z,9.31
2022-10-15T04:45:07.515Z,9.31
2022-10-15T04:46:10.704Z,9.40
2022-10-15T04:47:13.975Z,9.43
2022-10-15T04:48:19.442Z,9.37
2022-10-15T04:49:22.736Z,9.41
2022-10-15T04:50:25.464Z,9.34
2022-10-15T04:51:45.954Z,9.39
2022-10-15T04:52:52.199Z,9.36
2022-10-15T04:54:09.596Z,9.35
2022-10-15T04:55:21.651Z,9.37
2022-10-15T04:56:25.134Z,9.34
2022-10-15T04:57:28.064Z,9.35
2022-10-15T04:58:32.653Z,9.35
2022-10-15T04:59:34.713Z,9.42
2022-10-15T05:01:08.615Z,9.33
2022-10-15T05:02:26.403Z,9.24
2022-10-15T05:03:42.493Z,9.29
2022-10-15T05:04:47.091Z,9.32
2022-10-15T05:05:49.282Z,9.35
2022-10-15T05:06:51.764Z,9.32
2022-10-15T05:07:55.435Z,9.23
2022-10-15T05:08:57.408Z,9.30
2022-10-15T05:10:05.461Z,9.33
2022-10-15T05:11:20.858Z,9.41
2022-10-15T05:12:23.082Z,9.38
2022-10-15T05:13:25.136Z,9.38
2022-10-15T05:14:30.316Z,9.39
2022-10-15T05:15:47.118Z,9.40
2022-10-15T05:16:51.348Z,9.44
2022-10-15T05:17:53.675Z,9.48
2022-10-15T05:19:04.809Z,9.48
2022-10-15T05:20:08.155Z,9.48
2022-10-15T05:21:14.416Z,9.53
2022-10-15T05:22:18.293Z,9.46
2022-10-15T05:23:26.956Z,9.50
2022-10-15T05:24:42.860Z,9.48
2022-10-15T05:26:04.309Z,9.53
2022-10-15T05:27:06.296Z,9.52
2022-10-15T05:28:09.176Z,9.46
2022-10-15T05:29:11.149Z,9.55
2022-10-15T05:30:13.762Z,9.57
2022-10-15T05:31:25.192Z,9.52
2022-10-15T05:32:37.365Z,9.60
2022-10-15T05:33:39.817Z,9.60
2022-10-15T05:34:41.946Z,9.60
2022-10-15T05:35:49.219Z,9.62
2022-10-15T05:36:51.270Z,9.67
2022-10-15T05:37:55.959Z,9.70
2022-10-15T05:39:03.160Z,9.63
2022-10-15T05:40:08.099Z,9.68
2022-10-15T05:41:10.929Z,9.69
2022-10-15T05:42:13.089Z,9.66
2022-10-15T05:43:25.909Z,9.61
2022-10-15T05:44:38.904Z,9.54
2022-10-15T05:45:41.142Z,9.59
2022-10-15T05:46:43.329Z,9.60
2022-10-15T05:47:55.370Z,9.67
2022-10-15T05:48:59.205Z,9.70
2022-10-15T05:50:05.155Z,9.71
2022-10-15T05:51:16.147Z,9.71
2022-10-15T05:52:19.444Z,9.67
2022-10-15T05:53:58.577Z,9.71
2022-10-15T05:55:02.300Z,9.71
2022-10-15T05:56:05.677Z,9.72
2022-10-15T05:57:08.358Z,9.55
2022-10-15T05:58:10.646Z,9.51
2022-10-15T05:59:13.300Z,9.52
2022-10-15T06:00:16.835Z,9.58
2022-10-15T06:01:27.472Z,9.53
2022-10-15T06:02:29.839Z,9.65
2022-10-15T06:03:32.721Z,9.68
2022-10-15T06:04:35.824Z,9.70
2022-10-15T06:05:38.376Z,9.74
2022-10-15T06:06:41.411Z,9.83
2022-10-15T06:07:44.444Z,9.84
2022-10-15T06:08:48.356Z,9.89
2022-10-15T06:09:50.594Z,9.88
2022-10-15T06:10:52.904Z,9.90
2022-10-15T06:11:54.911Z,9.91
2022-10-15T06:13:02.064Z,9.95
2022-10-15T06:14:04.195Z,9.91
2022-10-15T06:15:06.874Z,9.92
2022-10-15T06:16:09.894Z,9.92
2022-10-15T06:17:14.422Z,9.86
2022-10-15T06:18:17.602Z,9.77
2022-10-15T06:19:19.602Z,9.92
2022-10-15T06:20:22.635Z,10.00
2022-10-15T06:21:24.870Z,10.07
2022-10-15T06:22:27.078Z,10.00
2022-10-15T06:23:29.352Z,10.02
2022-10-15T06:24:31.423Z,9.93
2022-10-15T06:25:36.451Z,10.02
2022-10-15T06:26:38.454Z,10.06
2022-10-15T06:27:40.684Z,10.06
2022-10-15T06:28:42.743Z,9.98
2022-10-15T06:29:44.722Z,10.09
2022-10-15T06:30:46.802Z,10.16
2022-10-15T06:31:49.495Z,10.11
2022-10-15T06:32:53.095Z,10.18
2022-10-15T06:33:55.086Z,10.23
2022-10-15T06:34:57.217Z,10.21
2022-10-15T06:36:10.907Z,10.33
2022-10-15T06:37:13.275Z,10.11
2022-10-15T06:38:15.634Z,10.27
2022-10-15T06:39:18.401Z,10.32
2022-10-15T06:40:20.684Z,10.39
2022-10-15T06:41:23.650Z,10.17
2022-10-15T06:42:26.309Z,10.21
2022-10-15T06:43:32.642Z,10.20
2022-10-15T06:44:36.900Z,10.12
2022-10-15T06:45:42.640Z,10.24
2022-10-15T06:46:52.112Z,10.23
2022-10-15T06:47:55.217Z,10.35
2022-10-15T06:48:57.417Z,10.37
2022-10-15T06:50:00.827Z,10.31
2022-10-15T06:51:03.426Z,10.31
2022-10-15T06:52:06.197Z,10.24
2022-10-15T06:53:08.783Z,10.34
2022-10-15T06:54:12.250Z,10.36
2022-10-15T06:55:14.373Z,10.38
2022-10-15T06:56:16.552Z,10.36
2022-10-15T06:57:20.553Z,10.26
2022-10-15T06:58:22.571Z,10.34
2022-10-15T06:59:27.073Z,10.27
2022-10-15T07:01:39.865Z,10.32
2022-10-15T07:02:45.765Z,10.39
2022-10-15T07:03:54.155Z,10.24
2022-10-15T07:04:56.394Z,10.11
2022-10-15T07:06:06.102Z,10.05
2022-10-15T07:07:08.220Z,10.10
2022-10-15T07:08:10.559Z,10.04
2022-10-15T07:09:13.107Z,10.05
2022-10-15T07:10:16.262Z,10.13
2022-10-15T07:11:18.483Z,10.19
2022-10-15T07:12:22.656Z,10.08
2022-10-15T07:13:25.158Z,10.16
2022-10-15T07:14:27.050Z,10.18
2022-10-15T07:15:29.748Z,10.09
2022-10-15T07:16:31.870Z,10.19
2022-10-15T07:17:35.378Z,10.29
2022-10-15T07:18:38.220Z,10.24
2022-10-15T07:19:41.553Z,10.27
2022-10-15T07:20:43.488Z,10.30
2022-10-15T07:21:45.611Z,10.25
2022-10-15T07:22:49.256Z,10.16
2022-10-15T07:23:52.440Z,10.15
2022-10-15T07:24:54.700Z,10.13
2022-10-15T07:26:01.150Z,10.17
2022-10-15T07:27:08.324Z,10.14
2022-10-15T07:28:20.663Z,10.19
2022-10-15T07:29:25.024Z,10.28
2022-10-15T07:30:30.058Z,10.28
2022-10-15T07:31:32.303Z,10.18
2022-10-15T07:32:35.215Z,10.28
2022-10-15T07:33:37.656Z,10.20
2022-10-15T07:34:39.767Z,10.27
2022-10-15T07:35:44.456Z,10.13
2022-10-15T07:36:46.506Z,10.28
2022-10-15T07:37:50.945Z,10.24
2022-10-15T07:38:55.794Z,10.35
2022-10-15T07:39:58.370Z,10.30
2022-10-15T07:41:01.538Z,10.34
2022-10-15T07:42:07.224Z,10.34
2022-10-15T07:43:09.932Z,10.39
2022-10-15T07:44:12.401Z,10.32
2022-10-15T07:45:14.566Z,10.44
2022-10-15T07:46:16.509Z,10.46
2022-10-15T07:47:18.939Z,10.47
2022-10-15T07:48:21.152Z,10.38
2022-10-15T07:49:23.382Z,10.41
2022-10-15T07:50:28.126Z,10.42
2022-10-15T07:51:35.799Z,10.46
2022-10-15T07:52:38.271Z,10.50
2022-10-15T07:53:40.633Z,10.41
2022-10-15T07:54:42.762Z,10.25
2022-10-15T07:55:50.353Z,10.29
2022-10-15T07:56:52.411Z,10.37
2022-10-15T07:58:00.507Z,10.48
2022-10-15T07:59:02.960Z,10.57
2022-10-15T08:00:06.714Z,10.51
2022-10-15T08:01:14.589Z,10.43
2022-10-15T08:02:18.663Z,10.46
2022-10-15T08:03:21.226Z,10.54
2022-10-15T08:04:23.348Z,10.60
2022-10-15T08:05:25.300Z,10.59
2022-10-15T08:06:27.552Z,10.65
2022-10-15T08:07:29.690Z,10.59
2022-10-15T08:08:33.032Z,10.60
2022-10-15T08:09:35.613Z,10.54
2022-10-15T08:10:37.765Z,10.54
2022-10-15T08:11:39.740Z,10.66
2022-10-15T08:12:45.148Z,10.58
2022-10-15T08:13:50.187Z,10.60
2022-10-15T08:14:52.194Z,10.44
2022-10-15T08:15:57.874Z,10.51
2022-10-15T08:17:03.924Z,10.55
2022-10-15T08:18:06.027Z,10.50
2022-10-15T08:19:08.088Z,10.51
2022-10-15T08:20:11.172Z,10.60
2022-10-15T08:21:13.776Z,10.57
2022-10-15T08:22:16.983Z,10.59
2022-10-15T08:23:19.165Z,10.70
2022-10-15T08:24:21.485Z,10.65
2022-10-15T08:25:23.749Z,10.70
2022-10-15T08:26:26.793Z,10.64
2022-10-15T08:27:28.932Z,10.67
2022-10-15T08:28:34.732Z,10.66
2022-10-15T08:29:40.281Z,10.70
2022-10-15T08:30:45.812Z,10.70
2022-10-15T08:31:51.890Z,10.63
2022-10-15T08:32:58.695Z,10.72
2022-10-15T08:34:02.202Z,10.75
2022-10-15T08:35:06.494Z,10.78
2022-10-15T08:36:08.911Z,10.77
2022-10-15T08:37:12.279Z,10.66
2022-10-15T08:38:17.492Z,10.70
2022-10-15T08:39:21.851Z,10.78
2022-10-15T08:40:23.960Z,10.79
2022-10-15T08:41:41.106Z,10.69
2022-10-15T08:42:46.203Z,10.86
2022-10-15T08:43:51.723Z,10.69
2022-10-15T08:45:02.120Z,10.81
2022-10-15T08:46:12.793Z,10.88
2022-10-15T08:47:45.232Z,10.71
2022-10-15T08:48:56.807Z,10.60
2022-10-15T08:50:01.389Z,10.56
2022-10-15T08:51:28.647Z,10.57
2022-10-15T08:52:36.876Z,10.58
2022-10-15T08:53:52.971Z,10.80
2022-10-15T08:54:56.844Z,10.89
2022-10-15T08:56:13.755Z,10.98
2022-10-15T08:57:37.580Z,10.87
2022-10-15T08:58:55.180Z,11.00
2022-10-15T09:00:22.713Z,11.04
2022-10-15T09:01:50.566Z,10.99
2022-10-15T09:03:05.617Z,10.87
2022-10-15T09:04:19.788Z,10.99
2022-10-15T09:05:43.129Z,11.09
2022-10-15T09:06:47.227Z,11.12
2022-10-15T09:08:21.673Z,11.14
2022-10-15T09:09:41.203Z,11.19
2022-10-15T09:10:53.772Z,11.04
2022-10-15T09:12:17.509Z,11.01
2022-10-15T09:13:31.130Z,11.03
2022-10-15T09:14:41.553Z,10.99
2022-10-15T09:15:54.094Z,11.15
2022-10-15T09:17:26.225Z,11.20
2022-10-15T09:18:45.164Z,11.31
2022-10-15T09:20:05.983Z,11.32
2022-10-15T09:21:09.949Z,11.27
2022-10-15T09:22:18.559Z,11.35
2022-10-15T09:23:28.632Z,11.36
2022-10-15T09:24:31.345Z,11.27
2022-10-15T09:25:37.070Z,11.20
2022-10-15T09:26:52.032Z,11.30
2022-10-15T09:27:54.519Z,11.35
2022-10-15T09:29:22.386Z,11.26
2022-10-15T09:30:47.734Z,11.30
2022-10-15T09:32:10.707Z,11.23
2022-10-15T09:33:45.861Z,11.43
2022-10-15T09:35:00.932Z,11.44
2022-10-15T09:36:27.624Z,11.36
2022-10-15T09:37:48.127Z,11.49
2022-10-15T09:38:55.944Z,11.67
2022-10-15T09:40:23.216Z,11.63
2022-10-15T09:41:56.590Z,11.68
2022-10-15T09:43:00.324Z,11.63
2022-10-15T09:44:05.660Z,11.62
2022-10-15T09:45:15.584Z,11.73
2022-10-15T09:46:18.363Z,11.76
2022-10-15T09:47:37.322Z,11.88
2022-10-15T09:48:51.658Z,11.85
2022-10-15T09:49:53.706Z,11.98
2022-10-15T09:51:24.117Z,12.08
2022-10-15T09:53:06.123Z,12.11
2022-10-15T09:54:30.137Z,11.96
2022-10-15T09:55:52.226Z,11.91
2022-10-15T09:57:00.194Z,11.96
2022-10-15T09:58:10.646Z,12.05
2022-10-15T09:59:39.397Z,12.06
2022-10-15T10:00:57.377Z,11.99
2022-10-15T10:02:14.037Z,12.01
2022-10-15T10:03:17.251Z,12.08
2022-10-15T10:04:22.237Z,12.14
2022-10-15T10:05:32.787Z,11.96
2022-10-15T10:06:48.004Z,11.91
2022-10-15T10:07:50.612Z,12.04
2022-10-15T10:08:56.391Z,11.96
2022-10-15T10:10:07.450Z,12.01
2022-10-15T10:11:13.023Z,11.98
2022-10-15T10:12:29.083Z,11.95
2022-10-15T10:13:34.370Z,11.94
2022-10-15T10:14:43.139Z,11.94
2022-10-15T10:15:46.364Z,11.83
2022-10-15T10:17:17.479Z,11.91
2022-10-15T10:18:23.180Z,11.94
2022-10-15T10:19:25.200Z,11.94
2022-10-15T10:20:32.729Z,11.94
2022-10-15T10:21:39.490Z,11.95
2022-10-15T10:22:51.271Z,11.87
2022-10-15T10:23:54.222Z,11.98
2022-10-15T10:24:56.401Z,12.01
2022-10-15T10:26:00.107Z,11.83
2022-10-15T10:28:16.877Z,11.94
2022-10-15T10:29:36.550Z,11.97
2022-10-15T10:30:48.264Z,11.98
2022-10-15T10:31:52.456Z,11.90
2022-10-15T10:33:06.492Z,11.85
2022-10-15T10:34:16.297Z,11.83
2022-10-15T10:35:23.060Z,11.92
2022-10-15T10:36:34.052Z,11.88
2022-10-15T10:37:44.046Z,11.90
2022-10-15T10:39:25.885Z,11.89
2022-10-15T10:40:36.976Z,11.78
2022-10-15T10:42:09.703Z,11.83
2022-10-15T10:43:17.578Z,11.58
2022-10-15T10:44:30.790Z,11.69
2022-10-15T10:45:35.082Z,11.65
2022-10-15T10:46:37.196Z,11.66
2022-10-15T10:47:40.646Z,11.57
2022-10-15T10:48:52.128Z,11.52
2022-10-15T10:49:56.702Z,11.47
2022-10-15T10:51:16.857Z,11.50
2022-10-15T10:52:40.582Z,11.55
2022-10-15T10:54:35.794Z,11.51
2022-10-15T10:56:44.417Z,11.58
2022-10-15T10:58:08.566Z,11.62
2022-10-15T10:59:46.298Z,11.61
2022-10-15T11:01:51.484Z,11.69
2022-10-15T11:03:22.950Z,11.71
2022-10-15T11:05:48.879Z,11.82
2022-10-15T11:07:50.849Z,11.80
2022-10-15T11:11:47.317Z,11.72
2022-10-15T11:13:08.488Z,11.55
2022-10-15T11:18:05.830Z,11.81
2022-10-15T11:19:59.601Z,11.86
2022-10-15T11:21:07.214Z,11.78
2022-10-15T11:22:24.369Z,11.72
2022-10-15T11:24:05.318Z,11.77
2022-10-15T11:25:28.583Z,11.86
2022-10-15T11:26:41.691Z,11.77
2022-10-15T11:28:05.578Z,11.90
2022-10-15T11:29:36.415Z,11.79
2022-10-15T11:33:01.837Z,11.78
2022-10-15T11:34:03.743Z,11.79
2022-10-15T11:35:48.268Z,11.85
2022-10-15T11:37:23.408Z,11.91
2022-10-15T11:38:39.149Z,11.87
2022-10-15T11:39:54.866Z,11.89
2022-10-15T11:41:36.582Z,11.84
2022-10-15T11:42:57.398Z,11.91
2022-10-15T11:44:31.001Z,11.97
2022-10-15T11:45:52.758Z,12.05
2022-10-15T11:47:03.862Z,12.12
2022-10-15T11:48:23.009Z,12.11
2022-10-15T11:49:59.480Z,12.06
2022-10-15T11:51:23.581Z,12.13
2022-10-15T11:52:45.298Z,12.13
2022-10-15T11:53:57.855Z,12.10
2022-10-15T11:55:08.116Z,11.97
2022-10-15T11:57:00.610Z,12.05
2022-10-15T12:00:18.285Z,12.05
2022-10-15T12:01:29.524Z,12.14
2022-10-15T12:02:38.484Z,11.87
2022-10-15T12:03:51.601Z,12.05
2022-10-15T12:05:01.469Z,12.01
2022-10-15T12:08:26.257Z,12.16
2022-10-15T12:09:36.990Z,12.00
2022-10-15T12:11:10.069Z,11.95
2022-10-15T12:12:31.073Z,11.96
2022-10-15T12:13:48.665Z,11.98
2022-10-15T12:15:40.832Z,11.91
2022-10-15T12:17:20.653Z,11.72
2022-10-15T12:18:29.160Z,11.94
2022-10-15T12:19:50.393Z,11.86
2022-10-15T12:20:55.839Z,12.02
2022-10-15T12:22:07.069Z,12.07
2022-10-15T12:23:40.787Z,12.07
2022-10-15T12:24:50.420Z,12.14
2022-10-15T12:25:53.110Z,12.19
2022-10-15T12:26:55.372Z,12.19
2022-10-15T12:28:02.603Z,12.20
2022-10-15T12:29:07.411Z,12.19
2022-10-15T12:30:13.841Z,12.32
2022-10-15T12:31:20.380Z,12.32
2022-10-15T12:32:36.423Z,12.33
2022-10-15T12:33:48.232Z,12.19
2022-10-15T12:35:02.317Z,12.21
2022-10-15T12:36:30.556Z,12.15
2022-10-15T12:37:36.353Z,12.19
2022-10-15T12:38:43.913Z,12.24
2022-10-15T12:39:52.668Z,12.15
2022-10-15T12:41:20.425Z,12.24
2022-10-15T12:42:33.484Z,12.15
2022-10-15T12:43:41.295Z,12.07
2022-10-15T12:44:50.034Z,12.02
2022-10-15T12:46:02.840Z,12.13
2022-10-15T12:47:06.731Z,12.07
2022-10-15T12:48:08.988Z,11.95
2022-10-15T12:49:35.426Z,11.95
2022-10-15T12:50:37.649Z,11.92
2022-10-15T12:51:41.577Z,11.80
2022-10-15T12:53:00.406Z,11.82
2022-10-15T12:54:33.305Z,11.88
2022-10-15T12:55:38.231Z,11.99
2022-10-15T12:56:41.983Z,11.91
2022-10-15T12:57:46.929Z,11.99
2022-10-15T12:58:56.213Z,12.01
2022-10-15T13:00:01.813Z,12.00
2022-10-15T13:01:23.969Z,12.01
2022-10-15T13:02:50.214Z,12.00
2022-10-15T13:04:02.499Z,11.96
2022-10-15T13:05:19.342Z,11.90
2022-10-15T13:06:22.565Z,11.92
2022-10-15T13:07:28.302Z,11.85
2022-10-15T13:08:32.055Z,11.92
2022-10-15T13:15:31.400Z,11.73
2022-10-15T13:21:12.973Z,11.33
2022-10-15T13:22:36.408Z,11.43
2022-10-15T13:23:49.957Z,11.28
2022-10-15T13:24:56.262Z,11.28
2022-10-15T13:26:19.364Z,11.22
2022-10-15T13:27:37.434Z,11.26
2022-10-15T13:28:45.245Z,11.27
2022-10-15T13:30:05.495Z,11.29
2022-10-15T13:31:45.353Z,11.19
2022-10-15T13:32:53.027Z,11.14
2022-10-15T13:34:13.846Z,11.17
2022-10-15T13:35:29.495Z,11.21
2022-10-15T13:36:35.446Z,11.15
2022-10-15T13:37:46.229Z,11.11
2022-10-15T13:38:55.639Z,11.09
2022-10-15T13:40:03.087Z,11.03
2022-10-15T13:41:09.886Z,10.95
2022-10-15T13:42:17.327Z,10.88
2022-10-15T13:43:22.899Z,10.90
2022-10-15T13:44:25.886Z,10.91
2022-10-15T13:45:29.743Z,10.86
2022-10-15T13:46:38.224Z,10.86
2022-10-15T13:47:43.371Z,10.85
2022-10-15T13:48:46.066Z,10.85
2022-10-15T13:49:52.120Z,10.79
2022-10-15T13:51:06.054Z,10.76
2022-10-15T13:52:10.513Z,10.77
2022-10-15T13:53:29.953Z,10.73
2022-10-15T13:54:33.222Z,10.81
2022-10-15T13:55:44.652Z,10.78
2022-10-15T13:57:02.307Z,10.69
2022-10-15T13:58:14.600Z,10.63
2022-10-15T13:59:20.470Z,10.70
2022-10-15T14:00:38.066Z,10.70
2022-10-15T14:01:48.364Z,10.66
2022-10-15T14:03:22.428Z,10.62
2022-10-15T14:04:24.956Z,10.62
2022-10-15T14:05:27.777Z,10.57
2022-10-15T14:06:38.366Z,10.51
2022-10-15T14:07:40.921Z,10.58
2022-10-15T14:08:43.161Z,10.61
2022-10-15T14:09:49.163Z,10.59
2022-10-15T14:10:55.542Z,10.57
2022-10-15T14:12:02.252Z,10.51
2022-10-15T14:13:08.789Z,10.55
2022-10-15T14:14:41.846Z,10.55
2022-10-15T14:15:52.389Z,10.48
2022-10-15T14:17:02.004Z,10.51
2022-10-15T14:18:04.611Z,10.52
2022-10-15T14:19:07.699Z,10.51
2022-10-15T14:20:27.222Z,10.52
2022-10-15T14:21:32.859Z,10.52
2022-10-15T14:22:44.785Z,10.44
2022-10-15T14:23:49.216Z,10.42
2022-10-15T14:24:56.975Z,10.42
2022-10-15T14:26:02.763Z,10.46
2022-10-15T14:27:16.225Z,10.44
2022-10-15T14:28:22.338Z,10.45
2022-10-15T14:29:35.910Z,10.46
2022-10-15T14:30:39.612Z,10.48
2022-10-15T14:31:48.504Z,10.47
2022-10-15T14:32:56.939Z,10.43
2022-10-15T14:34:03.393Z,10.42
2022-10-15T14:35:10.785Z,10.40
2022-10-15T14:36:26.756Z,10.44
2022-10-15T14:37:45.562Z,10.41
2022-10-15T14:38:51.450Z,10.41
2022-10-15T14:40:11.273Z,10.39
2022-10-15T14:41:35.078Z,10.36
2022-10-15T14:43:06.697Z,10.34
2022-10-15T14:44:11.642Z,10.34
2022-10-15T14:45:42.383Z,10.39
2022-10-15T14:47:08.691Z,10.31
2022-10-15T14:48:39.682Z,10.27
2022-10-15T14:49:49.271Z,10.31
2022-10-15T14:50:58.244Z,10.33
2022-10-15T14:52:21.410Z,10.35
2022-10-15T14:53:48.243Z,10.29
2022-10-15T14:56:01.067Z,10.36
2022-10-15T14:57:24.541Z,10.36
2022-10-15T14:58:31.078Z,10.27
2022-10-15T14:59:38.127Z,10.13
2022-10-15T15:00:55.163Z,10.23
2022-10-15T15:02:06.470Z,10.27
2022-10-15T15:03:17.869Z,10.20
2022-10-15T15:05:14.592Z,10.16
2022-10-15T15:06:34.989Z,10.17
2022-10-15T15:07:41.302Z,10.22
2022-10-15T15:08:46.522Z,10.22
2022-10-15T15:09:52.090Z,10.17
2022-10-15T15:11:00.325Z,10.23
2022-10-15T15:12:07.701Z,10.22
2022-10-15T15:13:22.327Z,10.15
2022-10-15T15:14:40.425Z,10.22
2022-10-15T15:15:44.084Z,10.19
2022-10-15T15:16:49.060Z,10.21
2022-10-15T15:17:54.046Z,10.17
2022-10-15T15:18:58.743Z,10.20
2022-10-15T15:20:01.367Z,10.16
2022-10-15T15:21:08.167Z,10.14
2022-10-15T15:22:16.897Z,10.19
2022-10-15T15:23:25.453Z,10.17
2022-10-15T15:24:27.753Z,10.23
2022-10-15T15:25:31.500Z,10.21
2022-10-15T15:26:33.525Z,10.21
2022-10-15T15:27:37.842Z,10.22
2022-10-15T15:28:40.117Z,10.24
2022-10-15T15:29:43.124Z,10.20
2022-10-15T15:30:45.531Z,10.22
2022-10-15T15:31:48.187Z,10.22
2022-10-15T15:32:50.559Z,10.27
2022-10-15T15:33:52.718Z,10.23
2022-10-15T15:34:58.893Z,10.22
2022-10-15T15:36:19.068Z,10.24
2022-10-15T15:37:27.455Z,10.30
2022-10-15T15:38:32.533Z,10.30
2022-10-15T15:39:35.018Z,10.28
2022-10-15T15:40:39.541Z,10.24
2022-10-15T15:41:41.828Z,10.29